createdAt,value
2019-04-30T00:01:31.606Z,9.60
2019-04-30T00:04:08.526Z,9.60
2019-04-30T00:06:40.620Z,9.60
2019-04-30T00:09:18.920Z,9.60
2019-04-30T00:11:50.555Z,9.50
2019-04-30T00:14:22.341Z,9.60
2019-04-30T00:16:55.150Z,9.60
2019-04-30T00:19:27.374Z,9.60
2019-04-30T00:22:00.589Z,9.60
2019-04-30T00:24:32.763Z,9.60
2019-04-30T00:27:05.221Z,9.60
2019-04-30T00:29:37.235Z,9.60
2019-04-30T00:32:09.275Z,9.60
2019-04-30T00:34:41.249Z,9.60
2019-04-30T00:37:14.270Z,9.70
2019-04-30T00:39:51.003Z,9.60
2019-04-30T00:42:24.877Z,9.70
2019-04-30T00:44:55.290Z,9.60
2019-04-30T00:47:27.375Z,9.60
2019-04-30T00:50:00.393Z,9.70
2019-04-30T00:52:33.819Z,9.70
2019-04-30T00:55:09.064Z,9.70
2019-04-30T00:57:43.812Z,9.70
2019-04-30T01:00:19.671Z,9.70
2019-04-30T01:02:55.944Z,9.70
2019-04-30T01:05:28.151Z,9.70
2019-04-30T01:08:00.374Z,9.70
2019-04-30T01:10:32.574Z,9.70
2019-04-30T01:13:10.187Z,9.70
2019-04-30T01:15:39.059Z,9.70
2019-04-30T01:18:11.091Z,9.70
2019-04-30T01:20:43.025Z,9.60
2019-04-30T01:23:19.496Z,9.60
2019-04-30T01:25:51.637Z,9.60
2019-04-30T01:28:24.415Z,9.70
2019-04-30T01:31:01.815Z,9.60
2019-04-30T01:33:34.519Z,9.60
2019-04-30T01:36:09.742Z,9.60
2019-04-30T01:38:44.547Z,9.60
2019-04-30T01:41:14.019Z,9.50
2019-04-30T01:43:45.985Z,9.50
2019-04-30T01:46:19.233Z,9.50
2019-04-30T01:48:51.980Z,9.50
2019-04-30T01:51:24.167Z,9.40
2019-04-30T01:53:56.115Z,9.40
2019-04-30T01:56:56.188Z,9.30
2019-04-30T01:59:33.860Z,9.30
2019-04-30T02:02:06.323Z,9.30
2019-04-30T02:04:39.321Z,9.30
2019-04-30T02:07:11.265Z,9.30
2019-04-30T02:09:43.255Z,9.30
2019-04-30T02:12:15.338Z,9.40
2019-04-30T02:14:49.468Z,9.30
2019-04-30T02:17:20.986Z,9.40
2019-04-30T02:19:56.573Z,9.40
2019-04-30T02:22:30.915Z,9.30
2019-04-30T02:25:00.744Z,9.40
2019-04-30T02:27:32.802Z,9.30
2019-04-30T02:30:05.055Z,9.30
2019-04-30T02:32:39.377Z,9.20
2019-04-30T02:35:22.733Z,9.20
2019-04-30T02:38:12.395Z,9.20
2019-04-30T02:40:44.850Z,9.20
2019-04-30T02:43:20.361Z,9.20
2019-04-30T02:45:54.800Z,9.10
2019-04-30T02:48:30.697Z,9.10
2019-04-30T02:51:09.937Z,9.10
2019-04-30T02:54:23.833Z,9.10
2019-04-30T02:57:11.953Z,9.10
2019-04-30T03:00:02.412Z,9.10
2019-04-30T03:02:34.719Z,9.00
2019-04-30T03:05:10.216Z,9.00
2019-04-30T03:07:43.179Z,9.00
2019-04-30T03:10:15.483Z,9.00
2019-04-30T03:12:49.701Z,9.00
2019-04-30T03:15:22.833Z,9.00
2019-04-30T03:18:09.656Z,9.00
2019-04-30T03:20:59.968Z,9.00
2019-04-30T03:23:31.970Z,9.00
2019-04-30T03:26:04.039Z,8.90
2019-04-30T03:28:36.009Z,8.90
2019-04-30T03:31:12.017Z,8.90
2019-04-30T03:33:42.605Z,8.90
2019-04-30T03:36:14.893Z,8.90
2019-04-30T03:38:46.895Z,8.90
2019-04-30T03:41:19.913Z,8.80
2019-04-30T03:43:52.109Z,8.80
2019-04-30T03:46:24.081Z,8.80
2019-04-30T03:48:56.069Z,8.80
2019-04-30T03:51:30.253Z,8.70
2019-04-30T03:54:01.708Z,8.70
2019-04-30T03:56:33.674Z,8.80
2019-04-30T03:59:06.093Z,8.80
2019-04-30T04:01:49.737Z,8.80
2019-04-30T04:04:31.110Z,8.80
2019-04-30T04:07:13.128Z,8.80
2019-04-30T04:09:50.097Z,8.80
2019-04-30T04:12:22.430Z,8.80
2019-04-30T04:14:55.090Z,8.80
2019-04-30T04:17:27.269Z,8.80
2019-04-30T04:19:59.991Z,8.80
2019-04-30T04:22:32.282Z,8.80
2019-04-30T04:25:04.413Z,8.80
2019-04-30T04:27:36.423Z,8.80
2019-04-30T04:30:10.620Z,8.80
2019-04-30T04:32:42.766Z,8.80
2019-04-30T04:35:15.287Z,8.90
2019-04-30T04:37:49.547Z,8.90
2019-04-30T04:40:21.363Z,8.80
2019-04-30T04:42:53.433Z,8.90
2019-04-30T04:45:25.417Z,8.90
2019-04-30T04:47:59.760Z,8.90
2019-04-30T04:50:31.320Z,8.90
2019-04-30T04:53:07.661Z,8.90
2019-04-30T04:55:40.047Z,8.90
2019-04-30T04:58:12.895Z,8.90
2019-04-30T05:00:45.531Z,9.00
2019-04-30T05:03:25.881Z,9.00
2019-04-30T05:06:02.296Z,9.10
2019-04-30T05:08:31.750Z,9.10
2019-04-30T05:11:03.820Z,9.10
2019-04-30T05:13:35.845Z,9.10
2019-04-30T05:16:09.173Z,9.10
2019-04-30T05:18:41.280Z,9.10
2019-04-30T05:21:13.239Z,9.10
2019-04-30T05:23:45.408Z,9.10
2019-04-30T05:26:19.089Z,9.10
2019-04-30T05:28:52.959Z,9.20
2019-04-30T05:31:25.059Z,9.20
2019-04-30T05:33:58.951Z,9.20
2019-04-30T05:36:31.295Z,9.30
2019-04-30T05:39:03.738Z,9.30
2019-04-30T05:41:35.684Z,9.30
2019-04-30T05:44:08.947Z,9.30
2019-04-30T05:46:41.412Z,9.30
2019-04-30T05:49:13.722Z,9.30
2019-04-30T05:51:53.518Z,9.30
2019-04-30T05:54:19.998Z,9.30
2019-04-30T05:56:52.257Z,9.30
2019-04-30T05:59:24.260Z,9.40
2019-04-30T06:01:56.511Z,9.40
2019-04-30T06:04:29.411Z,9.40
2019-04-30T06:07:01.801Z,9.40
2019-04-30T06:09:59.679Z,9.40
2019-04-30T06:12:49.554Z,9.40
2019-04-30T06:15:44.250Z,9.40
2019-04-30T06:18:16.320Z,9.40
2019-04-30T06:20:49.403Z,9.50
2019-04-30T06:23:21.570Z,9.50
2019-04-30T06:25:59.377Z,9.50
2019-04-30T06:28:29.741Z,9.50
2019-04-30T06:31:01.934Z,9.60
2019-04-30T06:33:34.330Z,9.70
2019-04-30T06:36:08.546Z,9.70
2019-04-30T06:38:41.018Z,9.80
2019-04-30T06:41:13.076Z,9.80
2019-04-30T06:43:45.671Z,9.80
2019-04-30T06:46:18.710Z,9.90
2019-04-30T06:48:53.797Z,9.90
2019-04-30T06:51:26.138Z,9.90
2019-04-30T06:53:58.669Z,9.90
2019-04-30T06:56:30.856Z,9.90
2019-04-30T06:59:02.852Z,10.00
2019-04-30T07:01:34.834Z,10.00
2019-04-30T07:04:07.213Z,10.00
2019-04-30T07:06:43.914Z,10.00
2019-04-30T07:09:52.062Z,10.10
2019-04-30T07:12:27.859Z,10.10
2019-04-30T07:14:59.175Z,10.20
2019-04-30T07:17:31.589Z,10.20
2019-04-30T07:20:04.169Z,10.30
2019-04-30T07:22:45.189Z,10.30
2019-04-30T07:25:11.708Z,10.30
2019-04-30T07:27:43.775Z,10.30
2019-04-30T07:30:15.883Z,10.30
2019-04-30T07:32:48.836Z,10.30
2019-04-30T07:35:20.946Z,10.30
2019-04-30T07:37:54.549Z,10.30
2019-04-30T07:40:26.687Z,10.30
2019-04-30T07:42:59.204Z,10.30
2019-04-30T07:45:32.041Z,10.30
2019-04-30T07:48:04.426Z,10.30
2019-04-30T07:50:37.232Z,10.30
2019-04-30T07:53:11.414Z,10.30
2019-04-30T07:55:44.537Z,10.40
2019-04-30T07:58:16.649Z,10.40
2019-04-30T08:00:49.706Z,10.50
2019-04-30T08:03:50.394Z,10.50
2019-04-30T08:06:22.946Z,10.50
2019-04-30T08:08:58.311Z,10.50
2019-04-30T08:11:29.592Z,10.40
2019-04-30T08:14:01.936Z,10.50
2019-04-30T08:16:34.433Z,10.60
2019-04-30T08:19:06.575Z,10.60
2019-04-30T08:21:38.838Z,10.70
2019-04-30T08:24:10.848Z,10.80
2019-04-30T08:26:42.854Z,10.70
2019-04-30T08:29:14.978Z,10.70
2019-04-30T08:31:48.917Z,10.90
2019-04-30T08:34:20.716Z,10.80
2019-04-30T08:36:53.315Z,10.80
2019-04-30T08:39:25.487Z,10.80
2019-04-30T08:41:57.491Z,10.70
2019-04-30T08:44:29.694Z,10.70
2019-04-30T08:47:01.876Z,10.70
2019-04-30T08:49:34.190Z,10.70
2019-04-30T08:52:06.500Z,10.70
2019-04-30T08:54:39.301Z,10.70
2019-04-30T08:57:11.519Z,10.70
2019-04-30T08:59:43.537Z,10.60
2019-04-30T09:02:16.628Z,10.60
2019-04-30T09:04:51.814Z,10.70
2019-04-30T09:07:23.794Z,10.70
2019-04-30T09:09:56.013Z,10.70
2019-04-30T09:12:29.850Z,10.60
2019-04-30T09:15:01.693Z,10.70
2019-04-30T09:17:33.807Z,10.70
2019-04-30T09:20:06.241Z,10.70
2019-04-30T09:22:39.367Z,10.70
2019-04-30T09:25:11.702Z,10.70
2019-04-30T09:27:43.734Z,10.70
2019-04-30T09:30:16.296Z,10.70
2019-04-30T09:32:49.967Z,10.70
2019-04-30T09:35:22.160Z,10.70
2019-04-30T09:37:59.745Z,10.70
2019-04-30T09:40:30.504Z,10.70
2019-04-30T09:43:01.665Z,10.70
2019-04-30T09:45:34.532Z,10.70
2019-04-30T09:48:07.301Z,10.70
2019-04-30T09:50:40.709Z,10.90
2019-04-30T09:53:13.359Z,10.90
2019-04-30T09:55:45.441Z,11.10
2019-04-30T09:58:20.787Z,11.20
2019-04-30T10:00:51.807Z,11.30
2019-04-30T10:03:24.729Z,11.40
2019-04-30T10:05:58.949Z,11.50
2019-04-30T10:08:31.573Z,11.50
2019-04-30T10:11:31.675Z,11.50
2019-04-30T10:14:03.711Z,11.50
2019-04-30T10:16:52.952Z,11.50
2019-04-30T10:19:24.940Z,11.60
2019-04-30T10:21:58.872Z,11.60
2019-04-30T10:24:30.958Z,11.60
2019-04-30T10:27:06.887Z,11.60
2019-04-30T10:29:39.512Z,11.60
2019-04-30T10:32:11.656Z,11.60
2019-04-30T10:34:43.695Z,11.60
2019-04-30T10:37:16.061Z,11.50
2019-04-30T10:39:49.022Z,11.50
2019-04-30T10:42:21.259Z,11.50
2019-04-30T10:44:53.326Z,11.50
2019-04-30T10:47:25.462Z,11.50
2019-04-30T10:49:58.558Z,11.50
2019-04-30T10:52:31.056Z,11.50
2019-04-30T10:55:04.664Z,11.60
2019-04-30T10:57:37.085Z,11.60
2019-04-30T11:00:14.052Z,11.70
2019-04-30T11:02:46.066Z,11.90
2019-04-30T11:05:18.813Z,12.20
2019-04-30T11:07:52.122Z,12.40
2019-04-30T11:10:25.356Z,12.50
2019-04-30T11:12:57.573Z,12.70
2019-04-30T11:15:30.072Z,12.80
2019-04-30T11:18:02.325Z,13.10
2019-04-30T11:20:35.622Z,13.20
2019-04-30T11:23:14.527Z,13.40
2019-04-30T11:25:42.871Z,13.60
2019-04-30T11:28:15.643Z,13.80
2019-04-30T11:30:49.913Z,13.80
2019-04-30T11:33:22.359Z,13.90
2019-04-30T11:36:02.287Z,14.00
2019-04-30T11:38:29.947Z,13.90
2019-04-30T11:41:02.277Z,13.80
2019-04-30T11:43:34.322Z,13.90
2019-04-30T11:47:09.619Z,13.90
2019-04-30T11:49:42.018Z,14.00
2019-04-30T11:52:14.298Z,14.00
2019-04-30T11:54:51.417Z,14.00
2019-04-30T11:57:20.913Z,13.80
2019-04-30T11:59:53.135Z,14.00
2019-04-30T12:02:29.646Z,14.10
2019-04-30T12:05:01.688Z,14.10
2019-04-30T12:07:51.513Z,14.00
2019-04-30T12:10:36.620Z,14.10
2019-04-30T12:13:24.560Z,14.30
2019-04-30T12:15:58.829Z,14.40
2019-04-30T12:18:31.366Z,14.40
2019-04-30T12:21:03.437Z,14.60
2019-04-30T12:23:35.431Z,14.70
2019-04-30T12:26:09.189Z,14.90
2019-04-30T12:28:41.816Z,15.00
2019-04-30T12:31:13.962Z,15.10
2019-04-30T12:33:46.107Z,15.20
2019-04-30T12:36:18.896Z,15.20
2019-04-30T12:38:51.537Z,15.20
2019-04-30T12:41:23.613Z,15.30
2019-04-30T12:43:55.687Z,15.40
2019-04-30T12:46:28.914Z,15.40
2019-04-30T12:49:19.868Z,15.50
2019-04-30T12:51:58.734Z,15.60
2019-04-30T12:54:52.612Z,15.60
2019-04-30T12:57:29.732Z,15.60
2019-04-30T13:00:01.799Z,15.50
2019-04-30T13:02:33.852Z,15.60
2019-04-30T13:05:08.829Z,15.50
2019-04-30T13:07:41.394Z,15.60
2019-04-30T13:10:15.167Z,15.50
2019-04-30T13:12:48.021Z,15.50
2019-04-30T13:15:20.543Z,15.60
2019-04-30T13:17:52.509Z,15.70
2019-04-30T13:20:24.746Z,15.60
2019-04-30T13:22:58.760Z,15.60
2019-04-30T13:25:35.342Z,15.70
2019-04-30T13:28:09.104Z,15.70
2019-04-30T13:30:41.640Z,15.70
2019-04-30T13:33:32.456Z,15.80
2019-04-30T13:36:04.582Z,15.80
2019-04-30T13:38:52.389Z,15.80
2019-04-30T13:41:38.414Z,15.90
2019-04-30T13:44:13.022Z,15.80
2019-04-30T13:46:45.188Z,16.00
2019-04-30T13:49:17.354Z,16.00
2019-04-30T13:51:49.706Z,16.10
2019-04-30T13:54:21.754Z,16.10
2019-04-30T13:56:53.874Z,16.20
2019-04-30T13:59:26.044Z,16.20
2019-04-30T14:01:58.806Z,16.00
2019-04-30T14:04:49.269Z,16.00
2019-04-30T14:07:43.376Z,15.90
2019-04-30T14:10:16.357Z,15.80
2019-04-30T14:12:53.665Z,15.80
2019-04-30T14:15:26.016Z,15.50
2019-04-30T14:17:59.687Z,15.50
2019-04-30T14:20:31.905Z,15.60
2019-04-30T14:23:04.573Z,15.50
2019-04-30T14:25:56.318Z,15.60
2019-04-30T14:28:22.525Z,15.60
2019-04-30T14:31:13.483Z,15.60
2019-04-30T14:33:45.839Z,15.70
2019-04-30T14:36:19.425Z,15.70
2019-04-30T14:38:51.580Z,15.80
2019-04-30T14:41:24.119Z,15.80
2019-04-30T14:44:02.845Z,15.80
2019-04-30T14:46:51.960Z,15.80
2019-04-30T14:49:41.657Z,15.80
2019-04-30T14:52:14.863Z,15.80
2019-04-30T14:55:03.182Z,15.70
2019-04-30T14:57:56.927Z,15.50
2019-04-30T15:00:51.615Z,15.40
2019-04-30T15:03:24.322Z,15.30
2019-04-30T15:05:56.385Z,15.30
2019-04-30T15:08:29.328Z,15.20
2019-04-30T15:11:01.552Z,15.20
2019-04-30T15:13:33.695Z,15.10
2019-04-30T15:16:05.810Z,15.20
2019-04-30T15:18:38.876Z,15.20
2019-04-30T15:21:11.213Z,15.30
2019-04-30T15:23:59.425Z,15.30
2019-04-30T15:26:29.195Z,15.30
2019-04-30T15:29:01.281Z,15.40
2019-04-30T15:31:33.317Z,15.40
2019-04-30T15:34:11.081Z,15.30
2019-04-30T15:36:43.649Z,15.30
2019-04-30T15:39:33.484Z,15.20
2019-04-30T15:42:06.235Z,15.20
2019-04-30T15:44:40.662Z,15.10
2019-04-30T15:47:13.115Z,15.00
2019-04-30T15:49:45.236Z,15.00
2019-04-30T15:52:18.915Z,15.00
2019-04-30T15:54:51.376Z,14.90
2019-04-30T15:57:23.412Z,14.80
2019-04-30T15:59:55.722Z,14.80
2019-04-30T16:02:56.244Z,14.80
2019-04-30T16:05:44.604Z,14.70
2019-04-30T16:08:47.415Z,14.70
2019-04-30T16:11:39.443Z,14.70
2019-04-30T16:14:23.058Z,14.70
2019-04-30T16:17:13.884Z,14.70
2019-04-30T16:19:45.884Z,14.70
2019-04-30T16:22:19.201Z,14.70
2019-04-30T16:24:54.557Z,14.80
2019-04-30T16:27:25.973Z,14.80
2019-04-30T16:29:59.518Z,14.70
2019-04-30T16:32:31.831Z,14.70
2019-04-30T16:35:03.966Z,14.70
2019-04-30T16:37:36.075Z,14.70
2019-04-30T16:40:10.425Z,14.70
2019-04-30T16:42:51.224Z,14.70
2019-04-30T16:45:23.295Z,14.70
2019-04-30T16:47:55.350Z,14.70
2019-04-30T16:50:27.399Z,14.60
2019-04-30T16:52:59.475Z,14.60
2019-04-30T16:55:31.562Z,14.60
2019-04-30T16:58:03.840Z,14.50
2019-04-30T17:00:36.492Z,14.60
2019-04-30T17:03:14.105Z,14.60
2019-04-30T17:05:51.593Z,14.50
2019-04-30T17:08:49.451Z,14.50
2019-04-30T17:11:39.204Z,14.50
2019-04-30T17:14:14.738Z,14.40
2019-04-30T17:16:48.880Z,14.40
2019-04-30T17:19:20.850Z,14.40
2019-04-30T17:21:52.881Z,14.30
2019-04-30T17:24:25.012Z,14.30
2019-04-30T17:26:59.122Z,14.30
2019-04-30T17:29:31.334Z,14.30
2019-04-30T17:32:03.609Z,14.30
2019-04-30T17:34:35.940Z,14.30
2019-04-30T17:37:09.137Z,14.30
2019-04-30T17:39:41.497Z,14.30
2019-04-30T17:42:13.721Z,14.30
2019-04-30T17:44:56.145Z,14.20
2019-04-30T17:47:19.628Z,14.10
2019-04-30T17:49:52.140Z,14.00
2019-04-30T17:52:25.846Z,13.90
2019-04-30T17:54:59.502Z,13.90
2019-04-30T17:57:34.521Z,13.80
2019-04-30T18:00:17.012Z,13.80
2019-04-30T18:02:41.967Z,13.80
2019-04-30T18:05:14.216Z,13.80
2019-04-30T18:07:46.641Z,13.70
2019-04-30T18:10:20.945Z,13.70
2019-04-30T18:12:53.140Z,13.70
2019-04-30T18:15:26.738Z,13.70
2019-04-30T18:18:23.603Z,13.70
2019-04-30T18:21:29.838Z,13.80
2019-04-30T18:24:39.397Z,13.80
2019-04-30T18:27:20.963Z,13.80
2019-04-30T18:29:52.219Z,13.80
2019-04-30T18:32:25.848Z,13.70
2019-04-30T18:34:59.140Z,13.70
2019-04-30T18:37:31.642Z,13.60
2019-04-30T18:40:04.167Z,13.60
2019-04-30T18:42:36.847Z,13.60
2019-04-30T18:45:11.480Z,13.50
2019-04-30T18:47:43.472Z,13.50
2019-04-30T18:50:16.756Z,13.50
2019-04-30T18:52:50.683Z,13.50
2019-04-30T18:55:23.222Z,13.50
2019-04-30T18:57:57.047Z,13.50
2019-04-30T19:00:49.388Z,13.50
2019-04-30T19:03:22.032Z,13.60
2019-04-30T19:06:01.203Z,13.60
2019-04-30T19:08:52.014Z,13.60
2019-04-30T19:11:43.103Z,13.60
2019-04-30T19:14:39.441Z,13.60
2019-04-30T19:17:40.725Z,13.50
2019-04-30T19:20:32.617Z,13.50
2019-04-30T19:23:04.977Z,13.50
2019-04-30T19:25:38.620Z,13.50
2019-04-30T19:28:14.328Z,13.40
2019-04-30T19:30:55.090Z,13.40
2019-04-30T19:33:18.901Z,13.40
2019-04-30T19:35:51.380Z,13.40
2019-04-30T19:38:23.554Z,13.40
2019-04-30T19:40:56.078Z,13.40
2019-04-30T19:43:28.622Z,13.30
2019-04-30T19:46:01.287Z,13.30
2019-04-30T19:48:33.906Z,13.30
2019-04-30T19:51:08.690Z,13.30
2019-04-30T19:53:40.468Z,13.20
2019-04-30T19:56:13.076Z,13.20
2019-04-30T19:58:57.235Z,13.30
2019-04-30T20:01:19.454Z,13.30
2019-04-30T20:03:51.551Z,13.30
2019-04-30T20:06:23.775Z,13.30
2019-04-30T20:08:55.863Z,13.20
2019-04-30T20:11:28.105Z,13.10
2019-04-30T20:14:00.285Z,13.10
2019-04-30T20:16:32.483Z,13.10
2019-04-30T20:19:04.785Z,13.10
2019-04-30T20:21:48.077Z,13.10
2019-04-30T20:24:13.264Z,13.10
2019-04-30T20:26:45.768Z,13.20
2019-04-30T20:29:18.603Z,13.20
2019-04-30T20:31:51.659Z,13.30
2019-04-30T20:34:24.445Z,13.30
2019-04-30T20:36:58.344Z,13.40
2019-04-30T20:39:58.771Z,13.40
2019-04-30T20:42:31.727Z,13.40
2019-04-30T20:45:04.182Z,13.50
2019-04-30T20:47:36.469Z,13.40
2019-04-30T20:50:09.571Z,13.50
2019-04-30T20:52:42.135Z,13.50
2019-04-30T20:55:14.753Z,13.50
2019-04-30T20:57:49.486Z,13.40
2019-04-30T21:00:22.369Z,13.40
2019-04-30T21:02:54.752Z,13.40
2019-04-30T21:05:27.314Z,13.30
2019-04-30T21:07:59.692Z,13.40
2019-04-30T21:10:32.717Z,13.40
2019-04-30T21:13:05.646Z,13.30
2019-04-30T21:15:39.529Z,13.30
2019-04-30T21:18:13.703Z,13.40
2019-04-30T21:20:46.225Z,13.40
2019-04-30T21:23:19.478Z,13.40
2019-04-30T21:25:52.004Z,13.40
2019-04-30T21:28:24.765Z,13.40
2019-04-30T21:30:57.218Z,13.30
2019-04-30T21:33:38.907Z,13.40
2019-04-30T21:36:16.277Z,13.30
2019-04-30T21:38:49.093Z,13.30
2019-04-30T21:41:21.526Z,13.30
2019-04-30T21:43:54.217Z,13.30
2019-04-30T21:46:29.134Z,13.20
2019-04-30T21:49:01.644Z,13.20
2019-04-30T21:51:33.775Z,13.10
2019-04-30T21:54:05.812Z,13.10
2019-04-30T21:56:38.098Z,13.00
2019-04-30T21:59:23.136Z,12.90
2019-04-30T22:01:44.931Z,12.90
2019-04-30T22:04:17.240Z,12.80
2019-04-30T22:06:49.515Z,12.80
2019-04-30T22:09:22.128Z,12.70
2019-04-30T22:11:54.454Z,12.70
2019-04-30T22:14:26.655Z,12.70
2019-04-30T22:16:59.475Z,12.70
2019-04-30T22:19:31.631Z,12.70
2019-04-30T22:22:04.081Z,12.70
2019-04-30T22:24:36.216Z,12.80
2019-04-30T22:27:08.564Z,12.80
2019-04-30T22:29:42.265Z,12.80
2019-04-30T22:32:14.590Z,12.80
2019-04-30T22:34:46.658Z,12.80
2019-04-30T22:37:19.632Z,12.90
2019-04-30T22:39:59.387Z,12.90
2019-04-30T22:42:34.107Z,12.90
2019-04-30T22:45:17.054Z,12.90
2019-04-30T22:47:50.356Z,12.90
2019-04-30T22:50:22.882Z,12.90
2019-04-30T22:52:55.040Z,12.90
2019-04-30T22:55:27.684Z,13.00
2019-04-30T22:57:59.800Z,13.00
2019-04-30T23:00:38.492Z,12.90
2019-04-30T23:03:38.812Z,13.00
2019-04-30T23:06:10.840Z,13.00
2019-04-30T23:08:45.526Z,13.00
2019-04-30T23:11:17.726Z,13.00
2019-04-30T23:13:49.910Z,13.00
2019-04-30T23:16:21.907Z,12.90
2019-04-30T23:18:54.447Z,12.90
2019-04-30T23:21:26.615Z,12.90
2019-04-30T23:23:58.846Z,12.90
2019-04-30T23:26:30.994Z,12.90
2019-04-30T23:29:03.185Z,12.80
2019-04-30T23:31:35.327Z,12.80
2019-04-30T23:34:17.360Z,12.80
2019-04-30T23:36:41.162Z,12.80
2019-04-30T23:39:13.922Z,12.80
2019-04-30T23:41:46.139Z,12.70
2019-04-30T23:44:18.516Z,12.60
2019-04-30T23:46:50.809Z,12.60
2019-04-30T23:49:22.901Z,12.50
2019-04-30T23:51:55.364Z,12.50
2019-04-30T23:54:27.588Z,12.40
2019-04-30T23:57:00.203Z,12.40
2019-04-30T23:59:32.309Z,12.40
